Time;durP1;ratioP1;P1;durP2;ratioP2;P2;SDS_P1;SDS_P2;PMS_P1;PMS_P2;Temp;Humidity;BMP_temperature;BMP_pressure;BME280_temperature;BME280_humidity;BME280_pressure;Samples;Min_cycle;Max_cycle;Signal;HPM_P1;HPM_P2
2023/08/13 00:01:12;;;;;;;0.95;0.80;;;22.40;99.90;;;;;;5103255;27;45177;-59
2023/08/13 00:03:38;;;;;;;1.08;0.88;;;22.40;99.90;;;;;;5103511;27;46376;-59
2023/08/13 00:06:05;;;;;;;1.67;0.90;;;22.40;99.90;;;;;;5101972;27;45062;-58
2023/08/13 00:08:32;;;;;;;1.75;0.95;;;22.40;99.90;;;;;;5101617;27;45394;-59
2023/08/13 00:10:59;;;;;;;1.02;0.75;;;22.40;99.90;;;;;;5111097;27;45117;-59
2023/08/13 00:13:27;;;;;;;1.65;0.82;;;22.40;99.90;;;;;;5102293;27;45291;-58
2023/08/13 00:15:54;;;;;;;1.98;1.10;;;22.40;99.90;;;;;;5100739;27;45625;-58
2023/08/13 00:18:20;;;;;;;1.30;0.90;;;22.40;99.90;;;;;;5103790;27;45228;-59
2023/08/13 00:20:47;;;;;;;1.23;0.80;;;22.40;99.90;;;;;;5103641;27;45137;-59
2023/08/13 00:23:14;;;;;;;1.02;0.80;;;22.40;99.90;;;;;;5102723;27;48341;-58
2023/08/13 00:25:41;;;;;;;1.83;0.93;;;22.40;99.90;;;;;;5112187;27;45165;-59
2023/08/13 00:28:08;;;;;;;1.38;0.80;;;22.40;99.90;;;;;;5094587;27;45191;-59
2023/08/13 00:30:36;;;;;;;3.35;0.95;;;22.40;99.90;;;;;;5102933;27;45266;-59
2023/08/13 00:33:03;;;;;;;2.95;0.77;;;22.40;99.90;;;;;;5102514;27;46553;-58
2023/08/13 00:35:30;;;;;;;1.13;0.70;;;22.40;99.90;;;;;;5103748;27;45086;-58
2023/08/13 00:37:57;;;;;;;2.00;0.70;;;22.40;99.90;;;;;;5102756;27;45163;-59
2023/08/13 00:40:24;;;;;;;1.85;0.93;;;22.40;99.90;;;;;;5102248;27;45093;-59
2023/08/13 00:42:51;;;;;;;1.52;0.90;;;22.40;99.90;;;;;;5102290;27;45212;-59
2023/08/13 00:45:18;;;;;;;1.23;0.77;;;22.40;99.90;;;;;;5102707;27;45078;-58
2023/08/13 00:47:47;;;;;;;0.70;0.65;;;22.40;99.90;;;;;;5103339;27;45174;-58
2023/08/13 00:50:13;;;;;;;2.42;1.00;;;22.40;99.90;;;;;;5103595;27;45223;-59
2023/08/13 00:52:41;;;;;;;1.48;0.70;;;22.40;99.90;;;;;;5102586;27;47407;-59
2023/08/13 00:55:08;;;;;;;2.33;1.10;;;22.40;99.90;;;;;;5094022;27;45114;-58
2023/08/13 00:57:35;;;;;;;2.05;0.70;;;22.40;99.90;;;;;;5102788;27;45192;-58
2023/08/13 01:00:06;;;;;;;2.85;1.00;;;22.40;99.90;;;;;;5109928;27;45279;-59
2023/08/13 01:02:33;;;;;;;2.55;1.17;;;22.40;99.90;;;;;;5101908;27;45272;-59
2023/08/13 01:05:01;;;;;;;1.10;0.90;;;22.40;99.90;;;;;;5102530;27;45250;-59
2023/08/13 01:07:39;;;;;;;1.55;0.80;;;22.40;99.90;;;;;;5103268;27;45353;-58
2023/08/13 01:10:11;;;;;;;1.63;0.90;;;22.40;99.90;;;;;;5101971;27;45152;-59
2023/08/13 01:12:44;;;;;;;1.20;0.90;;;22.40;99.90;;;;;;5096947;27;46511;-59
2023/08/13 01:15:16;;;;;;;1.35;0.73;;;22.40;99.90;;;;;;5102030;27;45240;-59
2023/08/13 01:17:45;;;;;;;1.77;0.82;;;22.40;99.90;;;;;;5102578;27;45221;-59
2023/08/13 01:20:14;;;;;;;2.67;0.98;;;22.40;99.90;;;;;;5102980;27;45086;-59
2023/08/13 01:22:48;;;;;;;2.22;0.90;;;22.40;99.90;;;;;;5101996;27;46451;-58
2023/08/13 01:25:17;;;;;;;1.42;0.90;;;22.40;99.90;;;;;;5102518;27;46034;-59
2023/08/13 01:27:49;;;;;;;1.42;0.70;;;22.40;99.90;;;;;;5104370;27;45138;-59
2023/08/13 01:30:22;;;;;;;1.55;0.88;;;22.40;99.90;;;;;;5105597;27;45195;-58
2023/08/13 01:32:55;;;;;;;2.17;0.70;;;22.40;99.90;;;;;;5104460;27;45296;-58
2023/08/13 01:35:23;;;;;;;1.65;1.00;;;22.40;99.90;;;;;;5105647;27;45769;-59
2023/08/13 01:37:52;;;;;;;1.52;0.98;;;22.40;99.90;;;;;;5101568;27;45309;-59
2023/08/13 01:40:19;;;;;;;1.33;0.63;;;22.40;99.90;;;;;;5102253;27;45240;-59
2023/08/13 01:42:46;;;;;;;1.25;0.75;;;22.40;99.90;;;;;;5107157;27;45192;-58
2023/08/13 01:45:12;;;;;;;1.67;0.90;;;22.40;99.90;;;;;;5101478;27;45238;-59
2023/08/13 01:47:39;;;;;;;1.42;0.90;;;22.40;99.90;;;;;;5102445;27;45390;-59
2023/08/13 01:50:07;;;;;;;1.00;0.70;;;22.40;99.90;;;;;;5102459;27;45304;-58
2023/08/13 01:52:34;;;;;;;2.15;0.98;;;22.40;99.90;;;;;;5101403;27;46209;-58
2023/08/13 01:55:02;;;;;;;1.70;1.00;;;22.40;99.90;;;;;;5110200;27;45079;-59
2023/08/13 01:57:29;;;;;;;1.25;0.80;;;22.40;99.90;;;;;;5106002;27;45193;-59
2023/08/13 01:59:56;;;;;;;1.20;0.70;;;22.40;99.90;;;;;;5105684;27;45352;-59
2023/08/13 02:02:23;;;;;;;1.08;0.50;;;22.40;99.90;;;;;;5104683;27;46223;-59
2023/08/13 02:04:49;;;;;;;2.72;0.95;;;22.40;99.90;;;;;;5105544;27;45340;-58
2023/08/13 02:07:16;;;;;;;3.30;0.77;;;22.40;99.90;;;;;;5106255;27;45386;-59
2023/08/13 02:09:43;;;;;;;2.13;0.90;;;22.40;99.90;;;;;;5112206;27;45239;-59
2023/08/13 02:12:11;;;;;;;1.70;0.90;;;22.40;99.90;;;;;;5098434;27;47298;-58
2023/08/13 02:14:38;;;;;;;2.63;0.70;;;22.40;99.90;;;;;;5106453;27;45309;-59
2023/08/13 02:17:05;;;;;;;1.30;0.80;;;22.40;99.90;;;;;;5105728;27;45255;-59
2023/08/13 02:19:31;;;;;;;1.38;0.95;;;22.40;99.90;;;;;;5105569;27;45126;-59
2023/08/13 02:21:58;;;;;;;0.88;0.70;;;22.40;99.90;;;;;;5104194;27;48012;-59
2023/08/13 02:24:25;;;;;;;1.17;0.70;;;22.40;99.90;;;;;;5105387;27;45250;-58
2023/08/13 02:26:52;;;;;;;1.30;0.85;;;22.40;99.90;;;;;;5104995;27;45161;-59
2023/08/13 02:29:20;;;;;;;1.83;1.00;;;22.40;99.90;;;;;;5105543;27;45179;-59
2023/08/13 02:31:46;;;;;;;1.13;0.93;;;22.40;99.90;;;;;;5105856;27;47945;-59
2023/08/13 02:34:13;;;;;;;1.55;0.82;;;22.30;99.90;;;;;;5105188;27;45186;-59
2023/08/13 02:36:40;;;;;;;1.77;0.98;;;22.40;99.90;;;;;;5105027;27;45099;-58
2023/08/13 02:39:07;;;;;;;1.40;0.95;;;22.40;99.90;;;;;;5104822;27;45239;-60
2023/08/13 02:41:34;;;;;;;1.35;0.80;;;22.40;99.90;;;;;;5102302;27;47124;-59
2023/08/13 02:44:00;;;;;;;1.88;0.82;;;22.40;99.90;;;;;;5104531;27;45156;-59
2023/08/13 02:46:29;;;;;;;1.00;0.60;;;22.40;99.90;;;;;;5105338;27;45180;-58
2023/08/13 02:48:56;;;;;;;1.98;1.10;;;22.40;99.90;;;;;;5105212;27;45182;-59
2023/08/13 02:51:23;;;;;;;0.88;0.70;;;22.40;99.90;;;;;;5109837;27;45340;-59
2023/08/13 02:53:50;;;;;;;2.88;1.23;;;22.40;99.90;;;;;;5107420;27;45113;-59
2023/08/13 02:56:18;;;;;;;2.13;1.10;;;22.40;99.90;;;;;;5107501;27;45164;-58
2023/08/13 02:58:45;;;;;;;1.48;0.80;;;22.40;99.90;;;;;;5104633;27;45245;-59
2023/08/13 03:01:12;;;;;;;1.55;1.02;;;22.40;99.90;;;;;;5103516;27;47453;-59
2023/08/13 03:03:40;;;;;;;1.88;0.93;;;22.40;99.90;;;;;;5105403;27;45237;-59
2023/08/13 03:06:07;;;;;;;1.00;0.85;;;22.40;99.90;;;;;;5104544;27;45224;-59
2023/08/13 03:08:34;;;;;;;1.75;0.98;;;22.40;99.90;;;;;;5105024;27;45360;-59
2023/08/13 03:11:01;;;;;;;1.77;0.88;;;22.30;99.90;;;;;;5102793;27;46211;-59
2023/08/13 03:13:28;;;;;;;1.45;0.90;;;22.40;99.90;;;;;;5108100;27;45129;-59
2023/08/13 03:15:55;;;;;;;2.60;0.75;;;22.40;99.90;;;;;;5103242;27;45104;-58
2023/08/13 03:18:21;;;;;;;1.90;0.90;;;22.40;99.90;;;;;;5110031;27;45066;-59
2023/08/13 03:20:49;;;;;;;2.78;1.17;;;22.40;99.90;;;;;;5107190;27;47063;-59
2023/08/13 03:23:16;;;;;;;2.00;1.40;;;22.30;99.90;;;;;;5104051;27;45338;-59
2023/08/13 03:25:43;;;;;;;1.35;0.90;;;22.30;99.90;;;;;;5102996;27;45193;-58
2023/08/13 03:28:10;;;;;;;2.30;0.90;;;22.30;99.90;;;;;;5104069;27;45270;-58
2023/08/13 03:30:36;;;;;;;1.48;1.10;;;22.30;99.90;;;;;;5104891;27;45289;-58
2023/08/13 03:33:04;;;;;;;2.50;0.80;;;22.30;99.90;;;;;;5111282;27;45899;-59
2023/08/13 03:35:30;;;;;;;1.25;0.85;;;22.30;99.90;;;;;;5104847;27;45302;-59
2023/08/13 03:37:58;;;;;;;1.33;1.05;;;22.30;99.90;;;;;;5103327;27;45563;-58
2023/08/13 03:40:25;;;;;;;2.53;1.00;;;22.30;99.90;;;;;;5103748;27;45115;-58
2023/08/13 03:42:52;;;;;;;1.08;0.95;;;22.30;99.90;;;;;;5103431;27;45093;-58
2023/08/13 03:45:19;;;;;;;3.55;1.00;;;22.30;99.90;;;;;;5103851;27;45295;-59
2023/08/13 03:47:46;;;;;;;2.05;0.75;;;22.30;99.90;;;;;;5109542;27;45298;-59
2023/08/13 03:50:12;;;;;;;2.83;1.10;;;22.30;99.90;;;;;;5103418;27;45217;-59
2023/08/13 03:52:39;;;;;;;1.20;0.90;;;22.30;99.90;;;;;;5102994;27;45279;-59
2023/08/13 03:55:08;;;;;;;1.27;0.77;;;22.30;99.90;;;;;;5103158;27;45083;-59
2023/08/13 03:57:35;;;;;;;1.90;1.00;;;22.30;99.90;;;;;;5106189;27;45314;-59
2023/08/13 04:00:02;;;;;;;2.33;1.08;;;22.30;99.90;;;;;;5103538;27;45462;-59
2023/08/13 04:02:33;;;;;;;1.55;1.08;;;22.30;99.90;;;;;;5102715;27;45248;-59
2023/08/13 04:05:01;;;;;;;1.73;0.98;;;22.30;99.90;;;;;;5101922;27;45114;-59
2023/08/13 04:07:27;;;;;;;1.98;1.13;;;22.30;99.90;;;;;;5103938;27;45205;-59
2023/08/13 04:09:54;;;;;;;3.13;0.98;;;22.30;99.90;;;;;;5103443;27;46216;-59
2023/08/13 04:12:22;;;;;;;2.13;0.88;;;22.30;99.90;;;;;;5103025;27;45263;-59
2023/08/13 04:14:49;;;;;;;3.50;0.80;;;22.30;99.90;;;;;;5103788;27;45126;-59
2023/08/13 04:17:15;;;;;;;1.45;0.82;;;22.30;99.90;;;;;;5103897;27;45555;-59
2023/08/13 04:19:42;;;;;;;1.33;0.73;;;22.30;99.90;;;;;;5103248;27;46369;-59
2023/08/13 04:22:09;;;;;;;2.03;1.08;;;22.30;99.90;;;;;;5102528;27;45101;-58
2023/08/13 04:24:36;;;;;;;0.73;0.55;;;22.30;99.90;;;;;;5104241;27;45106;-58
2023/08/13 04:27:03;;;;;;;2.22;1.05;;;22.30;99.90;;;;;;5103462;27;45146;-60
2023/08/13 04:29:32;;;;;;;2.17;1.10;;;22.30;99.90;;;;;;5103507;27;45245;-59
2023/08/13 04:31:58;;;;;;;1.45;0.93;;;22.30;99.90;;;;;;5101707;27;45745;-60
2023/08/13 04:34:25;;;;;;;1.55;0.95;;;22.30;99.90;;;;;;5102280;27;45261;-59
2023/08/13 04:36:52;;;;;;;2.28;1.10;;;22.30;99.90;;;;;;5102873;27;45218;-59
2023/08/13 04:39:19;;;;;;;2.22;0.90;;;22.30;99.90;;;;;;5107536;27;47939;-58
2023/08/13 04:41:46;;;;;;;2.20;1.10;;;22.30;99.90;;;;;;5105151;27;45122;-59
2023/08/13 04:44:12;;;;;;;1.85;0.80;;;22.30;99.90;;;;;;5103053;27;45236;-58
2023/08/13 04:46:40;;;;;;;2.80;0.93;;;22.30;99.90;;;;;;5103563;27;45222;-58
2023/08/13 04:49:07;;;;;;;1.58;0.90;;;22.30;99.90;;;;;;5102575;27;47335;-58
2023/08/13 04:51:34;;;;;;;1.88;1.10;;;22.30;99.90;;;;;;5101942;27;45248;-59
2023/08/13 04:54:01;;;;;;;2.15;1.00;;;22.30;99.90;;;;;;5103036;27;45236;-58
2023/08/13 04:56:27;;;;;;;1.85;1.05;;;22.30;99.90;;;;;;5103069;27;45105;-59
2023/08/13 04:58:54;;;;;;;4.07;1.55;;;22.30;99.90;;;;;;5102438;27;45223;-59
2023/08/13 05:01:21;;;;;;;1.70;1.10;;;22.30;99.90;;;;;;5101891;27;45816;-59
2023/08/13 05:03:49;;;;;;;1.63;0.73;;;22.30;99.90;;;;;;5103029;27;45094;-58
2023/08/13 05:06:17;;;;;;;1.30;0.90;;;22.30;99.90;;;;;;5083792;27;45438;-59
2023/08/13 05:08:44;;;;;;;1.73;0.95;;;22.30;99.90;;;;;;5102455;27;47486;-59
2023/08/13 05:11:10;;;;;;;2.00;0.90;;;22.30;99.90;;;;;;5100107;27;45263;-58
2023/08/13 05:13:37;;;;;;;2.88;1.10;;;22.30;99.90;;;;;;5103185;27;45101;-59
2023/08/13 05:16:04;;;;;;;1.70;0.90;;;22.30;99.90;;;;;;5101541;27;45261;-58
2023/08/13 05:18:31;;;;;;;2.35;1.08;;;22.30;99.90;;;;;;5102637;27;46379;-58
2023/08/13 05:20:59;;;;;;;2.88;0.82;;;22.30;99.90;;;;;;5102204;27;45220;-59
2023/08/13 05:23:26;;;;;;;6.18;1.13;;;22.30;99.90;;;;;;5102010;27;45215;-58
2023/08/13 05:25:54;;;;;;;1.77;1.10;;;22.30;99.90;;;;;;5101481;27;45082;-59
2023/08/13 05:28:21;;;;;;;1.00;0.80;;;22.30;99.90;;;;;;5100401;27;46214;-59
2023/08/13 05:30:47;;;;;;;3.25;1.17;;;22.30;99.90;;;;;;5101639;27;45335;-59
2023/08/13 05:33:14;;;;;;;1.83;0.90;;;22.30;99.90;;;;;;5105016;27;45133;-58
2023/08/13 05:35:41;;;;;;;1.52;0.80;;;22.30;99.90;;;;;;5105958;27;45245;-60
2023/08/13 05:38:09;;;;;;;2.97;1.17;;;22.30;99.90;;;;;;5105713;27;45137;-59
2023/08/13 05:40:36;;;;;;;1.70;0.88;;;22.30;99.90;;;;;;5106135;27;45715;-58
2023/08/13 05:43:03;;;;;;;2.78;0.98;;;22.30;99.90;;;;;;5104194;27;45227;-58
2023/08/13 05:45:30;;;;;;;2.85;1.25;;;22.30;99.90;;;;;;5104695;27;45417;-59
2023/08/13 05:47:57;;;;;;;1.85;1.00;;;22.30;99.90;;;;;;5105597;27;47291;-58
2023/08/13 05:50:24;;;;;;;2.03;1.30;;;22.30;99.90;;;;;;5105773;27;45104;-59
2023/08/13 05:52:51;;;;;;;1.95;1.00;;;22.30;99.90;;;;;;5103994;27;45233;-59
2023/08/13 05:55:19;;;;;;;1.33;0.82;;;22.30;99.90;;;;;;5106368;27;45090;-59
2023/08/13 05:57:45;;;;;;;3.20;0.98;;;22.30;99.90;;;;;;5104826;27;47479;-59
2023/08/13 06:00:13;;;;;;;1.35;0.70;;;22.30;99.90;;;;;;5105175;27;45141;-59
2023/08/13 06:02:40;;;;;;;1.42;1.00;;;22.30;99.90;;;;;;5104666;27;45232;-59
2023/08/13 06:05:08;;;;;;;2.65;0.98;;;22.30;99.90;;;;;;5105979;27;45170;-58
2023/08/13 06:07:35;;;;;;;2.60;1.00;;;22.30;99.90;;;;;;5105655;27;46674;-58
2023/08/13 06:10:02;;;;;;;1.33;0.88;;;22.30;99.90;;;;;;5105026;27;45138;-59
2023/08/13 06:12:30;;;;;;;2.20;0.90;;;22.30;99.90;;;;;;5104011;27;45122;-59
2023/08/13 06:14:58;;;;;;;2.05;0.80;;;22.30;99.90;;;;;;5106116;27;45486;-59
2023/08/13 06:17:24;;;;;;;2.28;0.90;;;22.30;99.90;;;;;;5105413;27;47974;-58
2023/08/13 06:19:51;;;;;;;2.83;1.00;;;22.30;99.90;;;;;;5104765;27;45096;-59
2023/08/13 06:22:18;;;;;;;1.88;1.10;;;22.30;99.90;;;;;;5104820;27;45141;-59
2023/08/13 06:24:45;;;;;;;1.05;0.80;;;22.30;99.90;;;;;;5105492;27;45151;-59
2023/08/13 06:27:12;;;;;;;1.90;0.98;;;22.30;99.90;;;;;;5104885;27;47896;-59
2023/08/13 06:29:40;;;;;;;1.25;0.80;;;22.30;99.90;;;;;;5103013;27;45711;-59
2023/08/13 06:32:07;;;;;;;2.53;1.02;;;22.40;99.90;;;;;;5099200;27;45145;-58
2023/08/13 06:34:34;;;;;;;1.67;0.85;;;22.30;99.90;;;;;;5105274;27;45204;-59
2023/08/13 06:37:02;;;;;;;2.35;0.98;;;22.40;99.90;;;;;;5104260;27;45247;-58
2023/08/13 06:39:29;;;;;;;2.15;1.00;;;22.40;99.90;;;;;;5104037;27;45260;-59
2023/08/13 06:41:57;;;;;;;2.83;0.90;;;22.40;99.90;;;;;;5104044;27;45277;-59
2023/08/13 06:44:23;;;;;;;2.15;0.90;;;22.40;99.90;;;;;;5104804;27;45056;-59
2023/08/13 06:46:51;;;;;;;2.13;1.00;;;22.40;99.90;;;;;;5105106;27;46147;-59
2023/08/13 06:49:18;;;;;;;2.20;0.90;;;22.40;99.90;;;;;;5104841;27;45200;-59
2023/08/13 06:51:45;;;;;;;1.33;0.85;;;22.40;99.90;;;;;;5104750;27;45098;-59
2023/08/13 06:54:12;;;;;;;1.73;1.10;;;22.40;99.90;;;;;;5105678;27;45237;-59
2023/08/13 06:56:38;;;;;;;1.60;1.00;;;22.40;99.90;;;;;;5107192;27;45270;-59
2023/08/13 06:59:05;;;;;;;1.27;0.88;;;22.40;99.90;;;;;;5107746;27;45215;-59
2023/08/13 07:01:33;;;;;;;2.63;1.05;;;22.40;99.90;;;;;;5109453;27;45178;-59
2023/08/13 07:04:02;;;;;;;2.10;1.00;;;22.40;99.90;;;;;;5103288;27;45511;-59
2023/08/13 07:06:29;;;;;;;2.20;1.20;;;22.40;99.90;;;;;;5104348;27;46067;-58
2023/08/13 07:08:56;;;;;;;2.15;0.90;;;22.40;99.90;;;;;;5100688;27;45128;-59
2023/08/13 07:11:23;;;;;;;1.20;0.90;;;22.40;99.90;;;;;;5101177;27;45214;-59
2023/08/13 07:13:50;;;;;;;1.90;1.08;;;22.40;99.90;;;;;;5110965;27;45253;-60
2023/08/13 07:16:17;;;;;;;1.95;1.10;;;22.40;99.90;;;;;;5095671;27;45439;-59
2023/08/13 07:18:44;;;;;;;1.90;1.08;;;22.40;99.90;;;;;;5097996;27;45432;-59
2023/08/13 07:21:12;;;;;;;1.50;0.88;;;22.40;99.90;;;;;;5102570;27;45680;-59
2023/08/13 07:23:39;;;;;;;1.83;1.10;;;22.40;99.90;;;;;;5102655;27;45210;-59
2023/08/13 07:26:06;;;;;;;1.40;1.00;;;22.40;99.90;;;;;;5101766;27;47574;-59
2023/08/13 07:28:35;;;;;;;3.15;1.13;;;22.40;99.90;;;;;;5102462;27;45150;-59
2023/08/13 07:31:04;;;;;;;2.38;1.05;;;22.40;99.90;;;;;;5095984;27;45280;-59
2023/08/13 07:33:31;;;;;;;1.17;0.80;;;22.40;99.90;;;;;;5104266;27;45589;-59
2023/08/13 07:35:59;;;;;;;1.88;1.05;;;22.40;99.90;;;;;;5103670;27;47606;-59
2023/08/13 07:38:27;;;;;;;1.50;0.90;;;22.40;99.90;;;;;;5101879;27;45300;-59
2023/08/13 07:40:55;;;;;;;1.30;1.10;;;22.40;99.90;;;;;;5105797;27;45303;-59
2023/08/13 07:43:22;;;;;;;7.13;1.27;;;22.40;99.90;;;;;;5099184;27;45429;-58
2023/08/13 07:45:50;;;;;;;22.55;3.70;;;22.40;99.90;;;;;;5107050;27;45093;-60
2023/08/13 07:48:17;;;;;;;16.92;2.28;;;22.50;99.90;;;;;;5106244;27;45350;-59
2023/08/13 07:50:44;;;;;;;10.88;2.00;;;22.50;99.90;;;;;;5104214;27;45461;-60
2023/08/13 07:53:11;;;;;;;6.75;1.20;;;22.50;99.90;;;;;;5106434;27;45443;-59
2023/08/13 07:55:39;;;;;;;4.32;1.10;;;22.50;99.90;;;;;;5099221;27;46385;-59
2023/08/13 07:58:06;;;;;;;5.22;1.35;;;22.50;99.90;;;;;;5105234;27;46083;-59
2023/08/13 08:00:33;;;;;;;3.97;1.17;;;22.40;99.90;;;;;;5108804;27;45097;-60
2023/08/13 08:03:00;;;;;;;3.97;1.05;;;22.40;99.90;;;;;;5107546;27;45371;-59
2023/08/13 08:05:27;;;;;;;3.00;0.90;;;22.50;99.90;;;;;;5104899;27;45195;-60
2023/08/13 08:07:53;;;;;;;4.35;1.13;;;22.50;99.90;;;;;;5115101;27;45351;-60
2023/08/13 08:10:20;;;;;;;2.25;0.90;;;22.50;99.90;;;;;;5102318;27;45256;-60
2023/08/13 08:12:48;;;;;;;5.90;1.10;;;22.50;99.90;;;;;;5096544;27;45185;-60
2023/08/13 08:15:15;;;;;;;2.45;1.17;;;22.50;99.90;;;;;;5110034;27;46238;-60
2023/08/13 08:17:42;;;;;;;4.97;1.40;;;22.50;99.90;;;;;;5100980;27;45188;-60
2023/08/13 08:20:09;;;;;;;1.52;0.95;;;22.50;99.90;;;;;;5099429;27;45261;-60
2023/08/13 08:22:36;;;;;;;2.38;1.00;;;22.50;99.90;;;;;;5102948;27;45264;-60
2023/08/13 08:25:08;;;;;;;4.32;1.30;;;22.50;99.90;;;;;;5103334;27;46426;-60
2023/08/13 08:27:34;;;;;;;2.05;0.98;;;22.50;99.90;;;;;;5102927;27;45159;-59
2023/08/13 08:30:03;;;;;;;2.58;1.25;;;22.50;99.90;;;;;;5102946;27;45228;-60
2023/08/13 08:32:31;;;;;;;2.33;1.17;;;22.50;99.90;;;;;;5102585;27;45397;-60
2023/08/13 08:34:57;;;;;;;2.83;1.17;;;22.50;99.90;;;;;;5092045;27;49170;-60
2023/08/13 08:37:24;;;;;;;2.00;1.00;;;22.50;99.90;;;;;;5097509;27;45165;-60
2023/08/13 08:39:51;;;;;;;2.35;1.15;;;22.50;99.90;;;;;;5106006;27;45137;-62
2023/08/13 08:42:20;;;;;;;6.55;1.00;;;22.50;99.90;;;;;;5104241;27;45561;-60
2023/08/13 08:44:46;;;;;;;5.28;1.25;;;22.60;99.90;;;;;;5094968;27;46339;-60
2023/08/13 08:47:15;;;;;;;4.45;1.20;;;22.60;99.90;;;;;;5095604;27;45146;-60
2023/08/13 08:49:46;;;;;;;1.85;0.82;;;22.60;99.90;;;;;;5104409;27;45122;-60
2023/08/13 08:52:13;;;;;;;3.55;1.17;;;22.60;99.90;;;;;;5103135;27;45126;-60
2023/08/13 08:54:40;;;;;;;2.33;1.05;;;22.60;99.90;;;;;;5102944;27;48540;-59
2023/08/13 08:57:07;;;;;;;1.60;1.10;;;22.60;99.90;;;;;;5106287;27;45209;-60
2023/08/13 08:59:34;;;;;;;1.92;0.80;;;22.60;99.90;;;;;;5101284;27;45361;-60
2023/08/13 09:02:00;;;;;;;1.98;0.90;;;22.60;99.90;;;;;;5101223;27;45375;-60
2023/08/13 09:04:29;;;;;;;2.65;0.93;;;22.60;99.90;;;;;;5102382;27;47299;-60
2023/08/13 09:06:58;;;;;;;1.45;0.90;;;22.60;99.90;;;;;;5103176;27;45151;-60
2023/08/13 09:09:26;;;;;;;1.30;0.90;;;22.60;99.90;;;;;;5105991;27;45286;-60
2023/08/13 09:11:54;;;;;;;1.88;0.80;;;22.60;99.90;;;;;;5104911;27;45296;-60
2023/08/13 09:14:22;;;;;;;1.25;0.80;;;22.60;99.90;;;;;;5109060;27;46267;-60
2023/08/13 09:16:50;;;;;;;1.35;0.70;;;22.60;99.90;;;;;;5106538;27;45200;-59
2023/08/13 09:19:18;;;;;;;2.20;0.90;;;22.60;99.90;;;;;;5098417;27;45294;-60
2023/08/13 09:21:50;;;;;;;1.92;1.00;;;22.60;99.90;;;;;;5105709;27;45327;-60
2023/08/13 09:24:17;;;;;;;3.53;0.98;;;22.60;99.90;;;;;;5106122;27;45271;-60
2023/08/13 09:26:44;;;;;;;1.67;0.77;;;22.60;99.90;;;;;;5103925;27;45389;-60
2023/08/13 09:29:11;;;;;;;4.10;1.20;;;22.50;99.90;;;;;;5105693;27;45261;-60
2023/08/13 09:31:38;;;;;;;2.00;1.08;;;22.60;99.90;;;;;;5109380;27;45152;-60
2023/08/13 09:34:05;;;;;;;1.77;0.80;;;22.60;99.90;;;;;;5105770;27;46363;-60
2023/08/13 09:36:33;;;;;;;1.70;0.80;;;22.50;99.90;;;;;;5106289;27;45112;-60
2023/08/13 09:39:01;;;;;;;1.83;0.70;;;22.60;99.90;;;;;;5113747;27;45126;-60
2023/08/13 09:41:28;;;;;;;1.65;0.63;;;22.50;99.90;;;;;;5105091;27;45450;-60
2023/08/13 09:44:00;;;;;;;1.48;0.80;;;22.50;99.90;;;;;;5106294;27;47381;-60
2023/08/13 09:46:28;;;;;;;1.48;0.90;;;22.60;99.90;;;;;;5113358;27;45667;-60
2023/08/13 09:48:58;;;;;;;1.45;0.80;;;22.50;99.90;;;;;;5104955;27;45366;-60
2023/08/13 09:51:30;;;;;;;0.82;0.70;;;22.60;99.90;;;;;;5105681;27;45235;-60
2023/08/13 09:54:04;;;;;;;1.67;0.80;;;22.60;99.90;;;;;;5109718;27;47054;-60
2023/08/13 09:56:32;;;;;;;1.42;0.85;;;22.60;99.90;;;;;;5109206;27;46289;-60
2023/08/13 09:59:00;;;;;;;2.42;0.82;;;22.50;99.90;;;;;;5105854;27;45165;-60
2023/08/13 10:01:28;;;;;;;1.50;0.77;;;22.60;99.90;;;;;;5104823;27;45275;-60
2023/08/13 10:03:56;;;;;;;1.83;0.80;;;22.60;99.90;;;;;;5113415;27;46899;-60
2023/08/13 10:06:24;;;;;;;1.55;0.95;;;22.60;99.90;;;;;;5105715;27;45660;-59
2023/08/13 10:08:51;;;;;;;1.65;0.88;;;22.60;99.90;;;;;;5105964;27;45066;-60
2023/08/13 10:11:20;;;;;;;1.42;0.70;;;22.60;99.90;;;;;;5103741;27;45369;-60
2023/08/13 10:13:47;;;;;;;1.25;0.77;;;22.60;99.90;;;;;;5105226;27;47252;-59
2023/08/13 10:16:15;;;;;;;1.83;0.70;;;22.60;99.90;;;;;;5105177;27;45199;-60
2023/08/13 10:18:46;;;;;;;2.88;0.90;;;22.60;99.90;;;;;;5104552;27;45259;-59
2023/08/13 10:21:14;;;;;;;1.08;0.70;;;22.60;99.90;;;;;;5104438;27;45097;-60
2023/08/13 10:23:41;;;;;;;1.80;0.70;;;22.50;99.90;;;;;;5105639;27;47464;-60
2023/08/13 10:26:09;;;;;;;2.15;0.63;;;22.60;99.90;;;;;;5115810;27;45327;-59
2023/08/13 10:28:37;;;;;;;2.80;0.80;;;22.60;99.90;;;;;;5108016;27;45136;-60
2023/08/13 10:31:48;;;;;;;1.45;0.63;;;22.60;99.90;;;;;;5104439;27;45093;-60
2023/08/13 10:34:16;;;;;;;1.63;0.60;;;22.60;99.90;;;;;;5104933;27;46427;-60
2023/08/13 10:36:55;;;;;;;1.05;0.60;;;22.60;99.90;;;;;;5104866;27;45130;-60
2023/08/13 10:39:36;;;;;;;1.13;0.60;;;22.60;99.90;;;;;;5105276;27;45267;-59
2023/08/13 10:42:04;;;;;;;1.52;0.80;;;22.60;99.90;;;;;;5102843;27;45269;-60
2023/08/13 10:44:40;;;;;;;0.70;0.60;;;22.60;99.90;;;;;;5105395;27;46597;-59
2023/08/13 10:47:07;;;;;;;0.93;0.65;;;22.60;99.90;;;;;;5104042;27;45239;-60
2023/08/13 10:49:36;;;;;;;2.17;0.70;;;22.60;99.90;;;;;;5112741;27;45195;-59
2023/08/13 10:52:03;;;;;;;1.98;0.75;;;22.60;99.90;;;;;;5104518;27;45185;-60
2023/08/13 10:54:30;;;;;;;2.45;0.85;;;22.60;99.90;;;;;;5104965;27;45267;-60
2023/08/13 10:56:58;;;;;;;1.25;0.77;;;22.60;99.90;;;;;;5103386;27;45205;-60
2023/08/13 10:59:38;;;;;;;1.73;0.90;;;22.60;99.90;;;;;;5105081;27;45160;-60
2023/08/13 11:02:15;;;;;;;2.53;0.70;;;22.60;99.90;;;;;;5104315;27;45045;-60
2023/08/13 11:04:43;;;;;;;1.05;0.50;;;22.60;99.90;;;;;;5105214;27;45204;-59
2023/08/13 11:07:10;;;;;;;1.52;0.63;;;22.60;99.90;;;;;;5103930;27;45357;-59
2023/08/13 11:09:37;;;;;;;0.68;0.50;;;22.60;99.90;;;;;;5113210;27;45122;-59
2023/08/13 11:12:06;;;;;;;1.25;0.73;;;22.60;99.90;;;;;;5103278;27;45109;-61
2023/08/13 11:14:35;;;;;;;1.65;0.80;;;22.60;99.90;;;;;;5104476;27;48668;-59
2023/08/13 11:17:02;;;;;;;1.50;0.80;;;22.60;99.90;;;;;;5104572;27;45261;-61
2023/08/13 11:19:29;;;;;;;0.70;0.65;;;22.60;99.90;;;;;;5104425;27;45038;-60
2023/08/13 11:21:57;;;;;;;1.63;1.00;;;22.60;99.90;;;;;;5112416;27;45421;-60
2023/08/13 11:24:24;;;;;;;1.23;0.73;;;22.60;99.90;;;;;;5104348;27;45370;-60
2023/08/13 11:26:51;;;;;;;1.00;0.60;;;22.60;99.90;;;;;;5104561;27;45208;-60
2023/08/13 11:29:21;;;;;;;1.25;0.80;;;22.60;99.90;;;;;;5106304;27;45143;-60
2023/08/13 11:31:50;;;;;;;0.95;0.70;;;22.60;99.90;;;;;;5108302;27;45433;-60
2023/08/13 11:34:18;;;;;;;0.90;0.40;;;22.60;99.90;;;;;;5104095;27;45118;-60
2023/08/13 11:36:46;;;;;;;1.33;0.60;;;22.60;99.90;;;;;;5104261;27;45282;-60
2023/08/13 11:39:13;;;;;;;1.45;0.65;;;22.60;99.90;;;;;;5103853;27;45170;-60
2023/08/13 11:41:40;;;;;;;2.20;0.60;;;22.60;99.90;;;;;;5102785;27;45383;-60
2023/08/13 11:44:11;;;;;;;1.15;0.60;;;22.60;99.90;;;;;;5103638;27;47798;-60
2023/08/13 11:46:56;;;;;;;1.60;0.70;;;22.60;99.90;;;;;;5101707;27;46724;-61
2023/08/13 11:49:24;;;;;;;1.20;0.70;;;22.60;99.90;;;;;;5095601;27;45358;-60
2023/08/13 11:51:51;;;;;;;0.90;0.60;;;22.60;99.90;;;;;;5103698;27;45311;-59
2023/08/13 11:54:19;;;;;;;1.75;0.80;;;22.60;99.90;;;;;;5103779;27;46263;-60
2023/08/13 11:56:48;;;;;;;1.08;0.77;;;22.60;99.90;;;;;;5107667;27;45354;-60
2023/08/13 11:59:15;;;;;;;1.63;0.60;;;22.60;99.90;;;;;;5102638;27;45315;-60
2023/08/13 12:01:42;;;;;;;1.00;0.60;;;22.60;99.90;;;;;;5103514;27;45386;-60
2023/08/13 12:04:10;;;;;;;1.15;0.80;;;22.60;99.90;;;;;;5104868;27;45122;-59
2023/08/13 12:06:36;;;;;;;2.33;0.77;;;22.60;99.90;;;;;;5104097;27;45295;-60
2023/08/13 12:09:04;;;;;;;0.85;0.70;;;22.60;99.90;;;;;;5104043;27;45211;-60
2023/08/13 12:11:32;;;;;;;0.80;0.60;;;22.60;99.90;;;;;;5101936;27;45162;-60
2023/08/13 12:14:06;;;;;;;1.23;0.80;;;22.60;99.90;;;;;;5105320;27;46307;-59
2023/08/13 12:16:33;;;;;;;1.08;0.63;;;22.60;99.90;;;;;;5119470;27;45101;-60
2023/08/13 12:19:01;;;;;;;1.15;0.75;;;22.60;99.90;;;;;;5106674;27;45131;-60
2023/08/13 12:21:29;;;;;;;1.33;0.80;;;22.60;99.90;;;;;;5101971;27;45269;-60
2023/08/13 12:23:56;;;;;;;1.20;0.80;;;22.60;99.90;;;;;;5103603;27;45213;-60
2023/08/13 12:26:23;;;;;;;1.42;0.80;;;22.60;99.90;;;;;;5103672;27;45221;-60
2023/08/13 12:28:51;;;;;;;0.93;0.77;;;22.60;99.90;;;;;;5103652;27;45229;-60
2023/08/13 12:31:18;;;;;;;1.23;0.80;;;22.60;99.90;;;;;;5110247;27;45165;-60
2023/08/13 12:33:45;;;;;;;1.58;0.63;;;22.60;99.90;;;;;;5101892;27;48562;-60
2023/08/13 12:36:12;;;;;;;1.27;0.80;;;22.60;99.90;;;;;;5102591;27;45438;-60
2023/08/13 12:38:41;;;;;;;0.70;0.63;;;22.60;99.90;;;;;;5103379;27;45315;-60
2023/08/13 12:41:08;;;;;;;0.90;0.50;;;22.60;99.90;;;;;;5106811;27;45240;-60
2023/08/13 12:43:36;;;;;;;1.40;0.70;;;22.60;99.90;;;;;;5103483;27;48133;-60
2023/08/13 12:46:03;;;;;;;0.82;0.63;;;22.60;99.90;;;;;;5103177;27;45165;-60
2023/08/13 12:48:31;;;;;;;2.13;0.85;;;22.60;99.90;;;;;;5102161;27;45031;-60